This is the latest recevied weather packets stored in our database for station/object KP4FJC. If no packets are shown the sender has not sent any weather packets the latest 10 day(s).
| Time | Temp. | Humidity | Pressure | Rain* | Wind** | Luminosity | Snow |
|---|---|---|---|---|---|---|---|
| 1777994359 | 31.11° C | 66% | 1018.5 hPa | 0 mm | - | 995 W/m² | - |
| 1777994050 | 31.67° C | 63% | 1018.5 hPa | 0 mm | - | 899 W/m² | - |
| 1777993748 | 30.56° C | 65% | 1018.5 hPa | 0 mm | - | 460 W/m² | - |
| 1777993444 | 31.67° C | 63% | 1018.6 hPa | 0 mm | - | 811 W/m² | - |
| 1777993139 | 31.11° C | 65% | 1018.4 hPa | 0 mm | - | 668 W/m² | - |
| 1777992837 | 31.11° C | 64% | 1018.7 hPa | 0 mm | - | 843 W/m² | - |
| 1777992534 | 31.11° C | 64% | 1018.4 hPa | 0 mm | - | 873 W/m² | - |
| 1777992233 | 30.56° C | 65% | 1018.7 hPa | 0 mm | - | 845 W/m² | - |
| 1777991930 | 31.11° C | 65% | 1018.6 hPa | 0 mm | - | 860 W/m² | - |
| 1777991627 | 30° C | 67% | 1018.8 hPa | 0 mm | - | 859 W/m² | - |
| 1777991324 | 30.56° C | 67% | 1018.8 hPa | 0 mm | - | 488 W/m² | - |
| 1777991022 | 30.56° C | 68% | 1018.7 hPa | 0 mm | - | 237 W/m² | - |
| 1777990719 | 30.56° C | 66% | 1018.9 hPa | 0 mm | - | 908 W/m² | - |
| 1777990416 | 31.11° C | 66% | 1019 hPa | 0 mm | - | 329 W/m² | - |
| 1777989809 | 30.56° C | 70% | 1018.9 hPa | 0 mm | - | 777 W/m² | - |
| 1777989506 | 30.56° C | 71% | 1019 hPa | 0 mm | - | 749 W/m² | - |
| 1777989202 | 30° C | 71% | 1019 hPa | 0 mm | - | 727 W/m² | - |
| 1777988899 | 30° C | 70% | 1019 hPa | 0 mm | - | 710 W/m² | - |
| 1777988596 | 30° C | 71% | 1018.7 hPa | 0 mm | - | 709 W/m² | - |
| 1777988292 | 30° C | 71% | 1018.9 hPa | 0 mm | - | 700 W/m² | - |
| 1777987989 | 29.44° C | 72% | 1018.9 hPa | 0 mm | - | 565 W/m² | - |
| 1777987685 | 28.89° C | 73% | 1018.9 hPa | 0 mm | - | 709 W/m² | - |
| 1777987382 | 29.44° C | 72% | 1018.8 hPa | 0 mm | - | 728 W/m² | - |
| 1777987079 | 29.44° C | 71% | 1018.8 hPa | 0 mm | - | 516 W/m² | - |
| 1777986776 | 29.44° C | 73% | 1018.8 hPa | 0 mm | - | 577 W/m² | - |
* Rain latest hour (hover to see other rain measurements)
** Current wind speed in m/s (hover to see current wind gust speed)